sensor_id;sensor_type;location;lat;lon;timestamp;P1;durP1;ratioP1;P2;durP2;ratioP2
2866;SDS011;1441;48.886;8.728;2023-03-02T00:01:32;25.43;;;15.17;;
2866;SDS011;1441;48.886;8.728;2023-03-02T00:04:11;25.10;;;14.13;;
2866;SDS011;1441;48.886;8.728;2023-03-02T00:06:40;21.77;;;12.70;;
2866;SDS011;1441;48.886;8.728;2023-03-02T00:09:06;26.10;;;14.90;;
2866;SDS011;1441;48.886;8.728;2023-03-02T00:11:33;25.00;;;14.77;;
2866;SDS011;1441;48.886;8.728;2023-03-02T00:14:00;24.73;;;14.37;;
2866;SDS011;1441;48.886;8.728;2023-03-02T00:16:26;27.20;;;15.30;;
2866;SDS011;1441;48.886;8.728;2023-03-02T00:18:51;33.53;;;16.50;;
2866;SDS011;1441;48.886;8.728;2023-03-02T00:21:17;26.23;;;15.60;;
2866;SDS011;1441;48.886;8.728;2023-03-02T00:23:42;25.63;;;15.67;;
2866;SDS011;1441;48.886;8.728;2023-03-02T00:26:08;27.70;;;14.53;;
2866;SDS011;1441;48.886;8.728;2023-03-02T00:28:34;26.20;;;15.00;;
2866;SDS011;1441;48.886;8.728;2023-03-02T00:31:02;23.70;;;14.63;;
2866;SDS011;1441;48.886;8.728;2023-03-02T00:33:28;23.83;;;14.23;;
2866;SDS011;1441;48.886;8.728;2023-03-02T00:35:54;25.53;;;15.07;;
2866;SDS011;1441;48.886;8.728;2023-03-02T00:38:20;25.50;;;15.43;;
2866;SDS011;1441;48.886;8.728;2023-03-02T00:40:46;27.83;;;15.07;;
2866;SDS011;1441;48.886;8.728;2023-03-02T00:43:16;25.70;;;15.00;;
2866;SDS011;1441;48.886;8.728;2023-03-02T00:45:41;22.30;;;13.60;;
2866;SDS011;1441;48.886;8.728;2023-03-02T00:48:07;27.00;;;15.03;;
2866;SDS011;1441;48.886;8.728;2023-03-02T00:50:33;25.63;;;15.60;;
2866;SDS011;1441;48.886;8.728;2023-03-02T00:53:04;30.10;;;14.27;;
2866;SDS011;1441;48.886;8.728;2023-03-02T00:55:34;25.60;;;14.80;;
2866;SDS011;1441;48.886;8.728;2023-03-02T00:58:01;30.03;;;15.17;;
2866;SDS011;1441;48.886;8.728;2023-03-02T01:00:26;26.27;;;15.03;;
2866;SDS011;1441;48.886;8.728;2023-03-02T01:02:52;28.60;;;14.57;;
2866;SDS011;1441;48.886;8.728;2023-03-02T01:05:18;29.00;;;15.73;;
2866;SDS011;1441;48.886;8.728;2023-03-02T01:07:44;26.80;;;16.03;;
2866;SDS011;1441;48.886;8.728;2023-03-02T01:10:10;28.47;;;16.00;;
2866;SDS011;1441;48.886;8.728;2023-03-02T01:12:36;27.23;;;15.50;;
2866;SDS011;1441;48.886;8.728;2023-03-02T01:15:02;35.73;;;15.03;;
2866;SDS011;1441;48.886;8.728;2023-03-02T01:17:27;25.57;;;15.67;;
2866;SDS011;1441;48.886;8.728;2023-03-02T01:19:53;23.40;;;14.53;;
2866;SDS011;1441;48.886;8.728;2023-03-02T01:22:20;28.27;;;16.27;;
2866;SDS011;1441;48.886;8.728;2023-03-02T01:24:47;30.20;;;15.70;;
2866;SDS011;1441;48.886;8.728;2023-03-02T01:27:13;24.40;;;15.10;;
2866;SDS011;1441;48.886;8.728;2023-03-02T01:29:39;28.00;;;16.67;;
2866;SDS011;1441;48.886;8.728;2023-03-02T01:32:04;28.13;;;16.07;;
2866;SDS011;1441;48.886;8.728;2023-03-02T01:34:30;27.27;;;15.80;;
2866;SDS011;1441;48.886;8.728;2023-03-02T01:36:56;26.70;;;16.97;;
2866;SDS011;1441;48.886;8.728;2023-03-02T01:39:22;30.63;;;16.83;;
2866;SDS011;1441;48.886;8.728;2023-03-02T01:48:03;27.00;;;15.23;;
2866;SDS011;1441;48.886;8.728;2023-03-02T01:50:28;29.80;;;16.60;;
2866;SDS011;1441;48.886;8.728;2023-03-02T01:52:55;28.23;;;15.27;;
2866;SDS011;1441;48.886;8.728;2023-03-02T01:55:22;29.47;;;16.43;;
2866;SDS011;1441;48.886;8.728;2023-03-02T01:57:50;27.20;;;16.37;;
2866;SDS011;1441;48.886;8.728;2023-03-02T02:00:20;30.60;;;16.23;;
2866;SDS011;1441;48.886;8.728;2023-03-02T02:02:52;26.47;;;15.43;;
2866;SDS011;1441;48.886;8.728;2023-03-02T02:05:32;28.77;;;16.00;;
2866;SDS011;1441;48.886;8.728;2023-03-02T02:08:00;29.87;;;16.57;;
2866;SDS011;1441;48.886;8.728;2023-03-02T02:10:26;33.33;;;17.23;;
2866;SDS011;1441;48.886;8.728;2023-03-02T02:12:52;31.63;;;17.87;;
2866;SDS011;1441;48.886;8.728;2023-03-02T02:15:18;32.47;;;18.43;;
2866;SDS011;1441;48.886;8.728;2023-03-02T02:17:43;28.97;;;16.67;;
2866;SDS011;1441;48.886;8.728;2023-03-02T02:20:27;30.97;;;17.60;;
2866;SDS011;1441;48.886;8.728;2023-03-02T02:28:27;29.90;;;16.70;;
2866;SDS011;1441;48.886;8.728;2023-03-02T02:31:22;30.60;;;17.80;;
2866;SDS011;1441;48.886;8.728;2023-03-02T02:33:58;28.67;;;16.83;;
2866;SDS011;1441;48.886;8.728;2023-03-02T02:36:32;34.03;;;18.30;;
2866;SDS011;1441;48.886;8.728;2023-03-02T02:39:03;28.07;;;16.50;;
2866;SDS011;1441;48.886;8.728;2023-03-02T02:41:32;27.30;;;17.10;;
2866;SDS011;1441;48.886;8.728;2023-03-02T02:44:01;30.27;;;17.27;;
2866;SDS011;1441;48.886;8.728;2023-03-02T02:46:26;31.43;;;17.50;;
2866;SDS011;1441;48.886;8.728;2023-03-02T02:48:52;31.53;;;17.00;;
2866;SDS011;1441;48.886;8.728;2023-03-02T02:51:22;34.90;;;19.03;;
2866;SDS011;1441;48.886;8.728;2023-03-02T02:56:35;32.37;;;17.10;;
2866;SDS011;1441;48.886;8.728;2023-03-02T03:01:53;29.27;;;17.90;;
2866;SDS011;1441;48.886;8.728;2023-03-02T03:04:21;30.93;;;18.20;;
2866;SDS011;1441;48.886;8.728;2023-03-02T03:06:51;27.83;;;16.37;;
2866;SDS011;1441;48.886;8.728;2023-03-02T03:09:18;34.20;;;18.40;;
2866;SDS011;1441;48.886;8.728;2023-03-02T03:11:45;30.73;;;16.63;;
2866;SDS011;1441;48.886;8.728;2023-03-02T03:14:15;33.67;;;17.07;;
2866;SDS011;1441;48.886;8.728;2023-03-02T03:16:44;28.90;;;17.27;;
2866;SDS011;1441;48.886;8.728;2023-03-02T03:19:19;32.20;;;17.60;;
2866;SDS011;1441;48.886;8.728;2023-03-02T03:21:51;28.77;;;16.13;;
2866;SDS011;1441;48.886;8.728;2023-03-02T03:24:18;43.03;;;17.70;;
2866;SDS011;1441;48.886;8.728;2023-03-02T03:26:44;33.50;;;18.67;;
2866;SDS011;1441;48.886;8.728;2023-03-02T03:29:11;32.17;;;17.77;;
2866;SDS011;1441;48.886;8.728;2023-03-02T03:31:37;30.67;;;17.40;;
2866;SDS011;1441;48.886;8.728;2023-03-02T03:34:02;31.90;;;16.87;;
2866;SDS011;1441;48.886;8.728;2023-03-02T03:36:29;30.93;;;16.60;;
2866;SDS011;1441;48.886;8.728;2023-03-02T03:38:56;37.60;;;18.00;;
2866;SDS011;1441;48.886;8.728;2023-03-02T03:41:22;30.13;;;17.30;;
2866;SDS011;1441;48.886;8.728;2023-03-02T03:43:48;35.70;;;18.80;;
2866;SDS011;1441;48.886;8.728;2023-03-02T03:46:15;28.60;;;16.30;;
2866;SDS011;1441;48.886;8.728;2023-03-02T03:48:41;29.40;;;18.30;;
2866;SDS011;1441;48.886;8.728;2023-03-02T03:51:07;31.00;;;16.97;;
2866;SDS011;1441;48.886;8.728;2023-03-02T03:53:33;33.03;;;17.07;;
2866;SDS011;1441;48.886;8.728;2023-03-02T03:56:00;34.10;;;19.13;;
2866;SDS011;1441;48.886;8.728;2023-03-02T03:58:27;33.70;;;18.60;;
2866;SDS011;1441;48.886;8.728;2023-03-02T04:00:53;34.47;;;18.63;;
2866;SDS011;1441;48.886;8.728;2023-03-02T04:03:19;28.13;;;17.63;;
2866;SDS011;1441;48.886;8.728;2023-03-02T04:05:45;32.27;;;18.37;;
2866;SDS011;1441;48.886;8.728;2023-03-02T04:08:11;34.30;;;18.33;;
2866;SDS011;1441;48.886;8.728;2023-03-02T04:10:37;34.17;;;18.93;;
2866;SDS011;1441;48.886;8.728;2023-03-02T04:13:02;31.80;;;17.70;;
2866;SDS011;1441;48.886;8.728;2023-03-02T04:15:28;30.80;;;17.70;;
2866;SDS011;1441;48.886;8.728;2023-03-02T04:17:54;30.83;;;16.77;;
2866;SDS011;1441;48.886;8.728;2023-03-02T04:20:21;32.07;;;18.80;;
2866;SDS011;1441;48.886;8.728;2023-03-02T04:22:48;30.90;;;17.90;;
2866;SDS011;1441;48.886;8.728;2023-03-02T04:25:15;24.73;;;16.00;;
2866;SDS011;1441;48.886;8.728;2023-03-02T04:27:46;26.00;;;15.07;;
2866;SDS011;1441;48.886;8.728;2023-03-02T04:30:13;32.63;;;17.13;;
2866;SDS011;1441;48.886;8.728;2023-03-02T04:32:41;30.03;;;17.90;;
2866;SDS011;1441;48.886;8.728;2023-03-02T04:35:08;32.27;;;17.73;;
2866;SDS011;1441;48.886;8.728;2023-03-02T04:37:37;33.83;;;18.40;;
2866;SDS011;1441;48.886;8.728;2023-03-02T04:40:04;31.90;;;17.53;;
2866;SDS011;1441;48.886;8.728;2023-03-02T04:42:30;33.63;;;18.27;;
2866;SDS011;1441;48.886;8.728;2023-03-02T04:44:56;36.87;;;18.57;;
2866;SDS011;1441;48.886;8.728;2023-03-02T04:47:22;30.20;;;17.80;;
2866;SDS011;1441;48.886;8.728;2023-03-02T04:49:47;29.30;;;16.77;;
2866;SDS011;1441;48.886;8.728;2023-03-02T04:52:14;30.10;;;17.10;;
2866;SDS011;1441;48.886;8.728;2023-03-02T04:54:40;36.90;;;18.20;;
2866;SDS011;1441;48.886;8.728;2023-03-02T04:57:06;28.83;;;16.50;;
2866;SDS011;1441;48.886;8.728;2023-03-02T04:59:32;34.07;;;17.20;;
2866;SDS011;1441;48.886;8.728;2023-03-02T05:01:59;31.33;;;17.17;;
2866;SDS011;1441;48.886;8.728;2023-03-02T05:04:25;26.97;;;15.43;;
2866;SDS011;1441;48.886;8.728;2023-03-02T05:06:51;33.57;;;17.40;;
2866;SDS011;1441;48.886;8.728;2023-03-02T05:09:17;30.60;;;16.13;;
2866;SDS011;1441;48.886;8.728;2023-03-02T05:11:43;29.93;;;16.40;;
2866;SDS011;1441;48.886;8.728;2023-03-02T05:14:10;32.80;;;17.50;;
2866;SDS011;1441;48.886;8.728;2023-03-02T05:16:37;33.80;;;18.90;;
2866;SDS011;1441;48.886;8.728;2023-03-02T05:19:05;28.00;;;17.30;;
2866;SDS011;1441;48.886;8.728;2023-03-02T05:21:32;33.90;;;17.73;;
2866;SDS011;1441;48.886;8.728;2023-03-02T05:23:58;27.10;;;16.30;;
2866;SDS011;1441;48.886;8.728;2023-03-02T05:26:23;32.87;;;17.80;;
2866;SDS011;1441;48.886;8.728;2023-03-02T05:28:49;32.30;;;17.03;;
2866;SDS011;1441;48.886;8.728;2023-03-02T05:31:19;26.37;;;14.60;;
2866;SDS011;1441;48.886;8.728;2023-03-02T05:33:47;33.90;;;16.90;;
2866;SDS011;1441;48.886;8.728;2023-03-02T05:36:13;38.20;;;18.53;;
2866;SDS011;1441;48.886;8.728;2023-03-02T05:38:39;32.57;;;17.60;;
2866;SDS011;1441;48.886;8.728;2023-03-02T05:41:04;28.43;;;16.30;;
2866;SDS011;1441;48.886;8.728;2023-03-02T05:43:30;35.97;;;18.00;;
2866;SDS011;1441;48.886;8.728;2023-03-02T05:45:56;32.40;;;17.43;;
2866;SDS011;1441;48.886;8.728;2023-03-02T05:48:25;35.07;;;18.20;;
2866;SDS011;1441;48.886;8.728;2023-03-02T05:50:52;33.23;;;16.80;;
2866;SDS011;1441;48.886;8.728;2023-03-02T05:53:17;34.37;;;17.70;;
2866;SDS011;1441;48.886;8.728;2023-03-02T05:55:43;33.20;;;17.97;;
2866;SDS011;1441;48.886;8.728;2023-03-02T05:58:10;33.37;;;17.67;;
2866;SDS011;1441;48.886;8.728;2023-03-02T06:00:38;35.77;;;18.00;;
2866;SDS011;1441;48.886;8.728;2023-03-02T06:03:04;34.40;;;18.40;;
2866;SDS011;1441;48.886;8.728;2023-03-02T06:05:30;35.80;;;18.07;;
2866;SDS011;1441;48.886;8.728;2023-03-02T06:07:56;46.43;;;18.93;;
2866;SDS011;1441;48.886;8.728;2023-03-02T06:10:22;32.60;;;17.10;;
2866;SDS011;1441;48.886;8.728;2023-03-02T06:12:48;33.90;;;17.10;;
2866;SDS011;1441;48.886;8.728;2023-03-02T06:15:13;30.03;;;16.90;;
2866;SDS011;1441;48.886;8.728;2023-03-02T06:17:39;33.93;;;18.00;;
2866;SDS011;1441;48.886;8.728;2023-03-02T06:20:04;38.77;;;18.90;;
2866;SDS011;1441;48.886;8.728;2023-03-02T06:22:38;31.87;;;17.97;;
2866;SDS011;1441;48.886;8.728;2023-03-02T06:25:06;33.20;;;19.17;;
2866;SDS011;1441;48.886;8.728;2023-03-02T06:27:36;31.73;;;17.27;;
2866;SDS011;1441;48.886;8.728;2023-03-02T06:30:02;38.03;;;17.77;;
2866;SDS011;1441;48.886;8.728;2023-03-02T06:32:29;27.10;;;15.23;;
2866;SDS011;1441;48.886;8.728;2023-03-02T06:34:58;34.63;;;17.30;;
2866;SDS011;1441;48.886;8.728;2023-03-02T06:37:24;31.70;;;16.27;;
2866;SDS011;1441;48.886;8.728;2023-03-02T06:39:52;32.80;;;17.43;;
2866;SDS011;1441;48.886;8.728;2023-03-02T06:42:19;31.10;;;17.30;;
2866;SDS011;1441;48.886;8.728;2023-03-02T06:44:44;33.07;;;17.57;;
2866;SDS011;1441;48.886;8.728;2023-03-02T06:47:10;30.27;;;16.73;;
2866;SDS011;1441;48.886;8.728;2023-03-02T06:49:36;29.90;;;16.90;;
2866;SDS011;1441;48.886;8.728;2023-03-02T06:52:01;30.60;;;15.93;;
2866;SDS011;1441;48.886;8.728;2023-03-02T06:54:27;29.40;;;16.70;;
2866;SDS011;1441;48.886;8.728;2023-03-02T06:56:53;32.43;;;17.50;;
2866;SDS011;1441;48.886;8.728;2023-03-02T06:59:18;36.33;;;18.70;;
2866;SDS011;1441;48.886;8.728;2023-03-02T07:01:44;29.13;;;15.80;;
2866;SDS011;1441;48.886;8.728;2023-03-02T07:04:11;30.13;;;17.77;;
2866;SDS011;1441;48.886;8.728;2023-03-02T07:06:36;28.37;;;16.07;;
2866;SDS011;1441;48.886;8.728;2023-03-02T07:09:02;33.30;;;16.83;;
2866;SDS011;1441;48.886;8.728;2023-03-02T07:11:28;28.10;;;16.33;;
2866;SDS011;1441;48.886;8.728;2023-03-02T07:13:54;34.30;;;16.93;;
2866;SDS011;1441;48.886;8.728;2023-03-02T07:16:19;29.30;;;15.90;;
2866;SDS011;1441;48.886;8.728;2023-03-02T07:18:45;38.07;;;19.20;;
2866;SDS011;1441;48.886;8.728;2023-03-02T07:21:10;32.67;;;17.90;;
2866;SDS011;1441;48.886;8.728;2023-03-02T07:23:36;32.57;;;16.00;;
2866;SDS011;1441;48.886;8.728;2023-03-02T07:26:01;35.43;;;17.67;;
2866;SDS011;1441;48.886;8.728;2023-03-02T07:28:32;30.87;;;16.40;;
2866;SDS011;1441;48.886;8.728;2023-03-02T07:30:57;32.83;;;17.47;;
2866;SDS011;1441;48.886;8.728;2023-03-02T07:33:23;30.37;;;17.00;;
2866;SDS011;1441;48.886;8.728;2023-03-02T07:35:49;27.00;;;15.50;;
2866;SDS011;1441;48.886;8.728;2023-03-02T07:38:14;31.00;;;16.27;;
2866;SDS011;1441;48.886;8.728;2023-03-02T07:40:40;30.70;;;15.87;;
2866;SDS011;1441;48.886;8.728;2023-03-02T07:43:06;29.07;;;17.33;;
2866;SDS011;1441;48.886;8.728;2023-03-02T07:45:33;28.50;;;15.83;;
2866;SDS011;1441;48.886;8.728;2023-03-02T07:47:59;28.90;;;14.77;;
2866;SDS011;1441;48.886;8.728;2023-03-02T07:50:24;24.67;;;13.57;;
2866;SDS011;1441;48.886;8.728;2023-03-02T07:52:50;30.00;;;17.07;;
2866;SDS011;1441;48.886;8.728;2023-03-02T07:55:15;29.27;;;17.17;;
2866;SDS011;1441;48.886;8.728;2023-03-02T07:57:41;33.27;;;16.20;;
2866;SDS011;1441;48.886;8.728;2023-03-02T08:00:07;31.60;;;16.63;;
2866;SDS011;1441;48.886;8.728;2023-03-02T08:02:33;30.17;;;17.00;;
2866;SDS011;1441;48.886;8.728;2023-03-02T08:04:58;29.00;;;16.20;;
2866;SDS011;1441;48.886;8.728;2023-03-02T08:07:24;27.10;;;16.10;;
2866;SDS011;1441;48.886;8.728;2023-03-02T08:09:49;29.53;;;17.10;;
2866;SDS011;1441;48.886;8.728;2023-03-02T08:12:15;26.30;;;16.30;;
2866;SDS011;1441;48.886;8.728;2023-03-02T08:14:40;28.67;;;16.10;;
2866;SDS011;1441;48.886;8.728;2023-03-02T08:17:06;33.60;;;17.30;;
2866;SDS011;1441;48.886;8.728;2023-03-02T08:19:32;31.30;;;16.03;;
2866;SDS011;1441;48.886;8.728;2023-03-02T08:21:58;28.73;;;16.20;;
2866;SDS011;1441;48.886;8.728;2023-03-02T08:24:24;29.83;;;16.00;;
2866;SDS011;1441;48.886;8.728;2023-03-02T08:26:50;30.47;;;15.37;;
2866;SDS011;1441;48.886;8.728;2023-03-02T08:29:16;29.93;;;14.83;;
2866;SDS011;1441;48.886;8.728;2023-03-02T08:31:42;27.00;;;14.93;;
2866;SDS011;1441;48.886;8.728;2023-03-02T08:34:07;29.67;;;15.20;;
2866;SDS011;1441;48.886;8.728;2023-03-02T08:36:33;31.70;;;15.77;;
2866;SDS011;1441;48.886;8.728;2023-03-02T08:38:58;24.07;;;15.37;;
2866;SDS011;1441;48.886;8.728;2023-03-02T08:41:24;30.80;;;16.37;;
2866;SDS011;1441;48.886;8.728;2023-03-02T08:43:50;27.20;;;16.13;;
2866;SDS011;1441;48.886;8.728;2023-03-02T08:46:18;30.40;;;16.00;;
2866;SDS011;1441;48.886;8.728;2023-03-02T08:48:44;29.20;;;14.83;;
2866;SDS011;1441;48.886;8.728;2023-03-02T08:51:12;29.83;;;16.33;;
2866;SDS011;1441;48.886;8.728;2023-03-02T08:53:40;28.20;;;15.87;;
2866;SDS011;1441;48.886;8.728;2023-03-02T08:56:22;30.97;;;15.73;;
2866;SDS011;1441;48.886;8.728;2023-03-02T08:58:51;24.20;;;15.10;;
2866;SDS011;1441;48.886;8.728;2023-03-02T09:01:21;31.20;;;15.80;;
2866;SDS011;1441;48.886;8.728;2023-03-02T09:03:48;29.00;;;15.53;;
2866;SDS011;1441;48.886;8.728;2023-03-02T09:06:14;27.37;;;15.70;;
2866;SDS011;1441;48.886;8.728;2023-03-02T09:08:40;27.70;;;15.73;;
2866;SDS011;1441;48.886;8.728;2023-03-02T09:11:07;29.57;;;15.17;;
2866;SDS011;1441;48.886;8.728;2023-03-02T09:13:32;24.77;;;14.73;;
2866;SDS011;1441;48.886;8.728;2023-03-02T09:15:58;27.57;;;14.67;;
2866;SDS011;1441;48.886;8.728;2023-03-02T09:18:25;25.43;;;13.73;;
2866;SDS011;1441;48.886;8.728;2023-03-02T09:20:52;22.70;;;14.00;;
2866;SDS011;1441;48.886;8.728;2023-03-02T09:23:20;26.77;;;15.07;;
2866;SDS011;1441;48.886;8.728;2023-03-02T09:25:46;27.17;;;14.03;;
2866;SDS011;1441;48.886;8.728;2023-03-02T09:28:13;28.17;;;14.40;;
2866;SDS011;1441;48.886;8.728;2023-03-02T09:30:39;28.47;;;13.70;;
2866;SDS011;1441;48.886;8.728;2023-03-02T09:33:05;23.37;;;14.47;;
2866;SDS011;1441;48.886;8.728;2023-03-02T09:35:31;26.73;;;14.40;;
2866;SDS011;1441;48.886;8.728;2023-03-02T09:37:56;26.83;;;14.27;;
2866;SDS011;1441;48.886;8.728;2023-03-02T09:40:22;27.10;;;14.83;;
2866;SDS011;1441;48.886;8.728;2023-03-02T09:54:05;24.93;;;14.93;;
2866;SDS011;1441;48.886;8.728;2023-03-02T09:56:54;26.67;;;13.87;;
2866;SDS011;1441;48.886;8.728;2023-03-02T09:59:23;26.03;;;14.00;;
2866;SDS011;1441;48.886;8.728;2023-03-02T10:02:02;21.43;;;14.13;;
2866;SDS011;1441;48.886;8.728;2023-03-02T10:04:46;26.93;;;14.27;;
2866;SDS011;1441;48.886;8.728;2023-03-02T10:07:15;25.97;;;13.90;;
2866;SDS011;1441;48.886;8.728;2023-03-02T10:09:47;25.50;;;15.00;;
2866;SDS011;1441;48.886;8.728;2023-03-02T10:15:03;29.87;;;14.43;;
2866;SDS011;1441;48.886;8.728;2023-03-02T10:20:44;30.00;;;15.90;;
2866;SDS011;1441;48.886;8.728;2023-03-02T10:28:47;27.50;;;15.47;;
2866;SDS011;1441;48.886;8.728;2023-03-02T10:31:20;25.60;;;14.77;;
2866;SDS011;1441;48.886;8.728;2023-03-02T10:33:52;22.97;;;13.80;;
2866;SDS011;1441;48.886;8.728;2023-03-02T10:36:20;27.37;;;14.93;;
2866;SDS011;1441;48.886;8.728;2023-03-02T10:38:54;23.00;;;13.07;;
2866;SDS011;1441;48.886;8.728;2023-03-02T10:41:23;22.57;;;13.67;;
2866;SDS011;1441;48.886;8.728;2023-03-02T10:43:58;29.13;;;15.10;;
2866;SDS011;1441;48.886;8.728;2023-03-02T10:46:38;26.30;;;14.33;;
2866;SDS011;1441;48.886;8.728;2023-03-02T10:49:17;25.53;;;15.07;;
2866;SDS011;1441;48.886;8.728;2023-03-02T10:51:57;24.20;;;15.37;;
2866;SDS011;1441;48.886;8.728;2023-03-02T10:54:29;24.57;;;13.90;;
2866;SDS011;1441;48.886;8.728;2023-03-02T10:56:58;23.83;;;14.30;;
2866;SDS011;1441;48.886;8.728;2023-03-02T11:02:15;32.00;;;16.33;;
2866;SDS011;1441;48.886;8.728;2023-03-02T11:04:40;23.33;;;13.37;;
2866;SDS011;1441;48.886;8.728;2023-03-02T11:07:12;26.27;;;14.50;;
2866;SDS011;1441;48.886;8.728;2023-03-02T11:09:41;26.07;;;15.13;;
2866;SDS011;1441;48.886;8.728;2023-03-02T11:12:14;23.67;;;14.53;;
2866;SDS011;1441;48.886;8.728;2023-03-02T11:14:41;25.77;;;14.70;;
2866;SDS011;1441;48.886;8.728;2023-03-02T11:17:23;27.47;;;15.20;;
2866;SDS011;1441;48.886;8.728;2023-03-02T11:19:53;30.17;;;15.30;;
2866;SDS011;1441;48.886;8.728;2023-03-02T11:22:40;22.60;;;14.17;;
2866;SDS011;1441;48.886;8.728;2023-03-02T11:25:12;23.57;;;14.17;;
2866;SDS011;1441;48.886;8.728;2023-03-02T11:28:07;23.37;;;15.77;;
2866;SDS011;1441;48.886;8.728;2023-03-02T11:30:47;24.40;;;14.60;;
2866;SDS011;1441;48.886;8.728;2023-03-02T11:36:11;23.57;;;15.20;;
2866;SDS011;1441;48.886;8.728;2023-03-02T11:38:46;29.27;;;16.10;;
2866;SDS011;1441;48.886;8.728;2023-03-02T11:43:42;25.93;;;15.43;;
2866;SDS011;1441;48.886;8.728;2023-03-02T11:46:12;25.57;;;14.40;;
2866;SDS011;1441;48.886;8.728;2023-03-02T11:48:48;31.67;;;15.50;;
2866;SDS011;1441;48.886;8.728;2023-03-02T11:51:24;24.93;;;15.40;;
2866;SDS011;1441;48.886;8.728;2023-03-02T11:54:12;26.77;;;14.80;;
2866;SDS011;1441;48.886;8.728;2023-03-02T11:57:05;27.30;;;16.33;;
2866;SDS011;1441;48.886;8.728;2023-03-02T11:59:37;24.57;;;15.67;;
2866;SDS011;1441;48.886;8.728;2023-03-02T12:02:03;26.73;;;15.17;;
2866;SDS011;1441;48.886;8.728;2023-03-02T12:04:32;26.27;;;16.40;;
2866;SDS011;1441;48.886;8.728;2023-03-02T12:07:02;22.17;;;15.27;;
2866;SDS011;1441;48.886;8.728;2023-03-02T12:09:39;24.60;;;15.77;;
2866;SDS011;1441;48.886;8.728;2023-03-02T12:15:02;25.63;;;15.13;;
2866;SDS011;1441;48.886;8.728;2023-03-02T12:17:48;23.00;;;14.77;;
2866;SDS011;1441;48.886;8.728;2023-03-02T12:22:48;25.97;;;15.47;;
2866;SDS011;1441;48.886;8.728;2023-03-02T12:27:42;22.73;;;15.90;;
2866;SDS011;1441;48.886;8.728;2023-03-02T12:33:02;23.13;;;15.80;;
2866;SDS011;1441;48.886;8.728;2023-03-02T12:35:40;24.20;;;15.90;;
2866;SDS011;1441;48.886;8.728;2023-03-02T12:54:15;27.60;;;16.40;;
2866;SDS011;1441;48.886;8.728;2023-03-02T12:56:43;24.00;;;15.87;;
2866;SDS011;1441;48.886;8.728;2023-03-02T12:59:23;24.97;;;16.27;;
2866;SDS011;1441;48.886;8.728;2023-03-02T13:01:50;27.03;;;17.60;;
2866;SDS011;1441;48.886;8.728;2023-03-02T13:04:19;23.93;;;16.40;;
2866;SDS011;1441;48.886;8.728;2023-03-02T13:06:46;26.47;;;16.90;;
2866;SDS011;1441;48.886;8.728;2023-03-02T13:09:12;28.43;;;18.07;;
2866;SDS011;1441;48.886;8.728;2023-03-02T13:11:39;24.73;;;15.73;;
2866;SDS011;1441;48.886;8.728;2023-03-02T13:14:20;23.90;;;16.50;;
2866;SDS011;1441;48.886;8.728;2023-03-02T13:16:55;23.27;;;15.63;;
2866;SDS011;1441;48.886;8.728;2023-03-02T13:19:28;23.00;;;15.37;;
2866;SDS011;1441;48.886;8.728;2023-03-02T13:21:55;26.07;;;16.27;;
2866;SDS011;1441;48.886;8.728;2023-03-02T13:27:16;25.17;;;16.63;;
2866;SDS011;1441;48.886;8.728;2023-03-02T13:29:46;27.40;;;16.70;;
2866;SDS011;1441;48.886;8.728;2023-03-02T13:32:19;23.63;;;16.17;;
2866;SDS011;1441;48.886;8.728;2023-03-02T13:34:51;23.17;;;14.90;;
2866;SDS011;1441;48.886;8.728;2023-03-02T13:37:31;21.77;;;14.50;;
2866;SDS011;1441;48.886;8.728;2023-03-02T13:39:59;28.00;;;16.30;;
2866;SDS011;1441;48.886;8.728;2023-03-02T13:42:28;26.47;;;16.57;;
2866;SDS011;1441;48.886;8.728;2023-03-02T13:45:14;26.80;;;16.20;;
2866;SDS011;1441;48.886;8.728;2023-03-02T13:47:53;26.20;;;15.90;;
2866;SDS011;1441;48.886;8.728;2023-03-02T13:50:30;22.23;;;16.13;;
2866;SDS011;1441;48.886;8.728;2023-03-02T13:52:57;33.00;;;17.00;;
2866;SDS011;1441;48.886;8.728;2023-03-02T13:55:26;23.50;;;16.40;;
2866;SDS011;1441;48.886;8.728;2023-03-02T13:57:52;25.60;;;16.70;;
2866;SDS011;1441;48.886;8.728;2023-03-02T14:00:20;23.57;;;16.20;;
2866;SDS011;1441;48.886;8.728;2023-03-02T14:02:49;27.40;;;16.63;;
2866;SDS011;1441;48.886;8.728;2023-03-02T14:05:16;25.17;;;16.63;;
2866;SDS011;1441;48.886;8.728;2023-03-02T14:07:43;28.07;;;16.30;;
2866;SDS011;1441;48.886;8.728;2023-03-02T14:10:12;25.93;;;15.70;;
2866;SDS011;1441;48.886;8.728;2023-03-02T14:12:42;26.70;;;17.00;;
2866;SDS011;1441;48.886;8.728;2023-03-02T14:15:15;26.40;;;16.90;;
2866;SDS011;1441;48.886;8.728;2023-03-02T14:17:41;25.87;;;16.30;;
2866;SDS011;1441;48.886;8.728;2023-03-02T14:20:11;30.83;;;17.73;;
2866;SDS011;1441;48.886;8.728;2023-03-02T14:22:39;28.10;;;16.80;;
2866;SDS011;1441;48.886;8.728;2023-03-02T14:25:05;25.40;;;16.63;;
2866;SDS011;1441;48.886;8.728;2023-03-02T14:27:32;26.20;;;17.37;;
2866;SDS011;1441;48.886;8.728;2023-03-02T14:29:57;26.60;;;17.20;;
2866;SDS011;1441;48.886;8.728;2023-03-02T14:32:24;24.73;;;16.40;;
2866;SDS011;1441;48.886;8.728;2023-03-02T14:34:49;24.27;;;16.43;;
2866;SDS011;1441;48.886;8.728;2023-03-02T14:37:16;26.03;;;17.03;;
2866;SDS011;1441;48.886;8.728;2023-03-02T14:39:49;26.60;;;17.90;;
2866;SDS011;1441;48.886;8.728;2023-03-02T14:42:16;27.07;;;16.53;;
2866;SDS011;1441;48.886;8.728;2023-03-02T14:44:44;24.13;;;15.23;;
2866;SDS011;1441;48.886;8.728;2023-03-02T14:47:11;25.20;;;16.83;;
2866;SDS011;1441;48.886;8.728;2023-03-02T14:49:37;27.60;;;16.87;;
2866;SDS011;1441;48.886;8.728;2023-03-02T14:52:20;26.27;;;16.50;;
2866;SDS011;1441;48.886;8.728;2023-03-02T14:55:00;24.50;;;16.30;;
2866;SDS011;1441;48.886;8.728;2023-03-02T14:57:30;29.63;;;15.43;;
2866;SDS011;1441;48.886;8.728;2023-03-02T14:59:59;23.47;;;16.23;;
2866;SDS011;1441;48.886;8.728;2023-03-02T15:02:25;25.43;;;16.47;;
2866;SDS011;1441;48.886;8.728;2023-03-02T15:04:51;25.67;;;15.63;;
2866;SDS011;1441;48.886;8.728;2023-03-02T15:07:19;25.53;;;16.47;;
2866;SDS011;1441;48.886;8.728;2023-03-02T15:09:45;23.00;;;15.40;;
2866;SDS011;1441;48.886;8.728;2023-03-02T15:12:11;24.30;;;15.43;;
2866;SDS011;1441;48.886;8.728;2023-03-02T15:14:37;23.00;;;15.67;;
2866;SDS011;1441;48.886;8.728;2023-03-02T15:17:02;25.53;;;15.27;;
2866;SDS011;1441;48.886;8.728;2023-03-02T15:19:28;26.03;;;15.63;;
2866;SDS011;1441;48.886;8.728;2023-03-02T15:21:54;24.20;;;15.83;;
2866;SDS011;1441;48.886;8.728;2023-03-02T15:24:19;22.17;;;15.80;;
2866;SDS011;1441;48.886;8.728;2023-03-02T15:26:47;26.67;;;15.43;;
2866;SDS011;1441;48.886;8.728;2023-03-02T15:29:17;27.10;;;16.27;;
2866;SDS011;1441;48.886;8.728;2023-03-02T15:31:43;26.20;;;15.30;;
2866;SDS011;1441;48.886;8.728;2023-03-02T15:34:09;25.90;;;15.10;;
2866;SDS011;1441;48.886;8.728;2023-03-02T15:36:35;23.17;;;16.10;;
2866;SDS011;1441;48.886;8.728;2023-03-02T15:39:00;24.80;;;16.50;;
2866;SDS011;1441;48.886;8.728;2023-03-02T15:41:26;22.37;;;15.03;;
2866;SDS011;1441;48.886;8.728;2023-03-02T15:43:52;27.50;;;17.33;;
2866;SDS011;1441;48.886;8.728;2023-03-02T15:46:19;27.00;;;17.10;;
2866;SDS011;1441;48.886;8.728;2023-03-02T15:48:45;23.43;;;16.57;;
2866;SDS011;1441;48.886;8.728;2023-03-02T15:51:10;25.63;;;15.77;;
2866;SDS011;1441;48.886;8.728;2023-03-02T15:53:36;26.50;;;15.63;;
2866;SDS011;1441;48.886;8.728;2023-03-02T15:56:03;26.37;;;16.17;;
2866;SDS011;1441;48.886;8.728;2023-03-02T15:58:30;26.17;;;17.57;;
2866;SDS011;1441;48.886;8.728;2023-03-02T16:00:57;29.47;;;17.73;;
2866;SDS011;1441;48.886;8.728;2023-03-02T16:03:22;25.47;;;16.70;;
2866;SDS011;1441;48.886;8.728;2023-03-02T16:05:48;28.07;;;16.53;;
2866;SDS011;1441;48.886;8.728;2023-03-02T16:08:14;24.00;;;16.70;;
2866;SDS011;1441;48.886;8.728;2023-03-02T16:10:39;29.57;;;17.67;;
2866;SDS011;1441;48.886;8.728;2023-03-02T16:13:08;24.60;;;16.70;;